sensor_id;sensor_type;location;lat;lon;timestamp;pressure;altitude;pressure_sealevel;temperature;humidity
75089;BME280;63673;49.928;8.150;2023-04-25T00:00:00;984.57;;;6.14;100
75089;BME280;63673;49.928;8.150;2023-04-25T00:01:02;984.57;;;6.14;100
75089;BME280;63673;49.928;8.150;2023-04-25T00:03:17;984.57;;;6.12;100
75089;BME280;63673;49.928;8.150;2023-04-25T00:04:21;984.49;;;6.13;100
75089;BME280;63673;49.928;8.150;2023-04-25T00:05:23;984.63;;;6.13;100
75089;BME280;63673;49.928;8.150;2023-04-25T00:06:25;984.65;;;6.12;100
75089;BME280;63673;49.928;8.150;2023-04-25T00:07:26;984.61;;;6.12;100
75089;BME280;63673;49.928;8.150;2023-04-25T00:08:28;984.58;;;6.11;100
75089;BME280;63673;49.928;8.150;2023-04-25T00:09:30;984.62;;;6.11;100
75089;BME280;63673;49.928;8.150;2023-04-25T00:10:32;984.58;;;6.11;100
75089;BME280;63673;49.928;8.150;2023-04-25T00:11:33;984.66;;;6.11;100
75089;BME280;63673;49.928;8.150;2023-04-25T00:12:35;984.62;;;6.12;100
75089;BME280;63673;49.928;8.150;2023-04-25T00:13:37;984.65;;;6.11;100
75089;BME280;63673;49.928;8.150;2023-04-25T00:14:39;984.65;;;6.11;100
75089;BME280;63673;49.928;8.150;2023-04-25T00:15:40;984.7;;;6.1;100
75089;BME280;63673;49.928;8.150;2023-04-25T00:16:42;984.66;;;6.1;100
75089;BME280;63673;49.928;8.150;2023-04-25T00:17:44;984.69;;;6.1;100
75089;BME280;63673;49.928;8.150;2023-04-25T00:18:45;984.69;;;6.1;100
75089;BME280;63673;49.928;8.150;2023-04-25T00:19:47;984.73;;;6.1;100
75089;BME280;63673;49.928;8.150;2023-04-25T00:20:49;984.68;;;6.09;100
75089;BME280;63673;49.928;8.150;2023-04-25T00:21:51;984.69;;;6.09;100
75089;BME280;63673;49.928;8.150;2023-04-25T00:22:52;984.67;;;6.09;100
75089;BME280;63673;49.928;8.150;2023-04-25T00:23:54;984.7;;;6.09;100
75089;BME280;63673;49.928;8.150;2023-04-25T00:24:56;984.66;;;6.09;100
75089;BME280;63673;49.928;8.150;2023-04-25T00:25:58;984.61;;;6.1;100
75089;BME280;63673;49.928;8.150;2023-04-25T00:26:59;984.64;;;6.11;100
75089;BME280;63673;49.928;8.150;2023-04-25T00:28:01;984.57;;;6.1;100
75089;BME280;63673;49.928;8.150;2023-04-25T00:29:03;984.56;;;6.1;100
75089;BME280;63673;49.928;8.150;2023-04-25T00:30:05;984.54;;;6.09;100
75089;BME280;63673;49.928;8.150;2023-04-25T00:31:06;984.58;;;6.09;100
75089;BME280;63673;49.928;8.150;2023-04-25T00:32:08;984.52;;;6.09;100
75089;BME280;63673;49.928;8.150;2023-04-25T00:33:10;984.51;;;6.09;100
75089;BME280;63673;49.928;8.150;2023-04-25T00:34:11;984.6;;;6.08;100
75089;BME280;63673;49.928;8.150;2023-04-25T00:35:13;984.51;;;6.08;100
75089;BME280;63673;49.928;8.150;2023-04-25T00:36:15;984.6;;;6.09;100
75089;BME280;63673;49.928;8.150;2023-04-25T00:37:17;984.64;;;6.08;100
75089;BME280;63673;49.928;8.150;2023-04-25T00:38:18;984.62;;;6.08;100
75089;BME280;63673;49.928;8.150;2023-04-25T00:39:20;984.69;;;6.08;100
75089;BME280;63673;49.928;8.150;2023-04-25T00:40:22;984.7;;;6.08;100
75089;BME280;63673;49.928;8.150;2023-04-25T00:41:24;984.69;;;6.08;100
75089;BME280;63673;49.928;8.150;2023-04-25T00:42:25;984.7;;;6.08;100
75089;BME280;63673;49.928;8.150;2023-04-25T00:43:27;984.71;;;6.09;100
75089;BME280;63673;49.928;8.150;2023-04-25T00:44:29;984.71;;;6.08;100
75089;BME280;63673;49.928;8.150;2023-04-25T00:45:31;984.71;;;6.08;100
75089;BME280;63673;49.928;8.150;2023-04-25T00:46:32;984.7;;;6.09;100
75089;BME280;63673;49.928;8.150;2023-04-25T00:47:35;984.68;;;6.1;100
75089;BME280;63673;49.928;8.150;2023-04-25T00:48:36;984.73;;;6.1;100
75089;BME280;63673;49.928;8.150;2023-04-25T00:49:37;984.67;;;6.11;100
75089;BME280;63673;49.928;8.150;2023-04-25T00:50:39;984.66;;;6.12;100
75089;BME280;63673;49.928;8.150;2023-04-25T00:51:41;984.71;;;6.12;100
75089;BME280;63673;49.928;8.150;2023-04-25T00:52:43;984.64;;;6.12;100
75089;BME280;63673;49.928;8.150;2023-04-25T00:53:44;984.6;;;6.14;100
75089;BME280;63673;49.928;8.150;2023-04-25T00:54:46;984.61;;;6.14;100
75089;BME280;63673;49.928;8.150;2023-04-25T00:55:48;984.63;;;6.14;100
75089;BME280;63673;49.928;8.150;2023-04-25T00:56:50;984.54;;;6.15;100
75089;BME280;63673;49.928;8.150;2023-04-25T00:57:51;984.58;;;6.15;100
75089;BME280;63673;49.928;8.150;2023-04-25T00:58:53;984.58;;;6.15;100
75089;BME280;63673;49.928;8.150;2023-04-25T00:59:55;984.57;;;6.15;100
75089;BME280;63673;49.928;8.150;2023-04-25T01:00:57;984.56;;;6.16;100
75089;BME280;63673;49.928;8.150;2023-04-25T01:01:58;984.56;;;6.16;100
75089;BME280;63673;49.928;8.150;2023-04-25T01:03:00;984.56;;;6.16;100
75089;BME280;63673;49.928;8.150;2023-04-25T01:04:02;984.53;;;6.16;100
75089;BME280;63673;49.928;8.150;2023-04-25T01:05:04;984.51;;;6.17;100
75089;BME280;63673;49.928;8.150;2023-04-25T01:06:05;984.57;;;6.17;100
75089;BME280;63673;49.928;8.150;2023-04-25T01:07:07;984.53;;;6.18;100
75089;BME280;63673;49.928;8.150;2023-04-25T01:08:09;984.58;;;6.17;100
75089;BME280;63673;49.928;8.150;2023-04-25T01:09:10;984.56;;;6.18;100
75089;BME280;63673;49.928;8.150;2023-04-25T01:10:12;984.58;;;6.18;100
75089;BME280;63673;49.928;8.150;2023-04-25T01:11:14;984.55;;;6.17;100
75089;BME280;63673;49.928;8.150;2023-04-25T01:12:16;984.55;;;6.19;100
75089;BME280;63673;49.928;8.150;2023-04-25T01:13:17;984.57;;;6.19;100
75089;BME280;63673;49.928;8.150;2023-04-25T01:14:19;984.53;;;6.19;100
75089;BME280;63673;49.928;8.150;2023-04-25T01:15:21;984.55;;;6.18;100
75089;BME280;63673;49.928;8.150;2023-04-25T01:16:23;984.53;;;6.18;100
75089;BME280;63673;49.928;8.150;2023-04-25T01:17:24;984.5;;;6.19;100
75089;BME280;63673;49.928;8.150;2023-04-25T01:18:26;984.5;;;6.19;100
75089;BME280;63673;49.928;8.150;2023-04-25T01:19:28;984.53;;;6.19;100
75089;BME280;63673;49.928;8.150;2023-04-25T01:20:30;984.57;;;6.19;100
75089;BME280;63673;49.928;8.150;2023-04-25T01:21:31;984.51;;;6.18;100
75089;BME280;63673;49.928;8.150;2023-04-25T01:22:33;984.55;;;6.18;100
75089;BME280;63673;49.928;8.150;2023-04-25T01:23:35;984.53;;;6.18;100
75089;BME280;63673;49.928;8.150;2023-04-25T01:24:36;984.55;;;6.18;100
75089;BME280;63673;49.928;8.150;2023-04-25T01:25:38;984.52;;;6.17;100
75089;BME280;63673;49.928;8.150;2023-04-25T01:26:40;984.52;;;6.17;100
75089;BME280;63673;49.928;8.150;2023-04-25T01:27:42;984.49;;;6.17;100
75089;BME280;63673;49.928;8.150;2023-04-25T01:28:43;984.56;;;6.17;100
75089;BME280;63673;49.928;8.150;2023-04-25T01:29:45;984.61;;;6.17;100
75089;BME280;63673;49.928;8.150;2023-04-25T01:30:47;984.5;;;6.17;100
75089;BME280;63673;49.928;8.150;2023-04-25T01:31:49;984.53;;;6.17;100
75089;BME280;63673;49.928;8.150;2023-04-25T01:32:50;984.52;;;6.16;100
75089;BME280;63673;49.928;8.150;2023-04-25T01:33:52;984.49;;;6.16;100
75089;BME280;63673;49.928;8.150;2023-04-25T01:34:54;984.48;;;6.16;100
75089;BME280;63673;49.928;8.150;2023-04-25T01:35:55;984.51;;;6.15;100
75089;BME280;63673;49.928;8.150;2023-04-25T01:36:59;984.48;;;6.15;100
75089;BME280;63673;49.928;8.150;2023-04-25T01:38:00;984.47;;;6.15;100
75089;BME280;63673;49.928;8.150;2023-04-25T01:39:01;984.47;;;6.15;100
75089;BME280;63673;49.928;8.150;2023-04-25T01:40:03;984.48;;;6.14;100
75089;BME280;63673;49.928;8.150;2023-04-25T01:41:04;984.53;;;6.14;100
75089;BME280;63673;49.928;8.150;2023-04-25T01:42:06;984.48;;;6.13;100
75089;BME280;63673;49.928;8.150;2023-04-25T01:43:08;984.5;;;6.14;100
75089;BME280;63673;49.928;8.150;2023-04-25T01:44:09;984.47;;;6.13;100
75089;BME280;63673;49.928;8.150;2023-04-25T01:45:11;984.52;;;6.13;100
75089;BME280;63673;49.928;8.150;2023-04-25T01:46:13;984.53;;;6.13;100
75089;BME280;63673;49.928;8.150;2023-04-25T01:47:15;984.5;;;6.13;100
75089;BME280;63673;49.928;8.150;2023-04-25T01:48:16;984.52;;;6.13;100
75089;BME280;63673;49.928;8.150;2023-04-25T01:49:18;984.5;;;6.12;100
75089;BME280;63673;49.928;8.150;2023-04-25T01:50:20;984.48;;;6.12;100
75089;BME280;63673;49.928;8.150;2023-04-25T01:51:22;984.5;;;6.11;100
75089;BME280;63673;49.928;8.150;2023-04-25T01:52:23;984.5;;;6.11;100
75089;BME280;63673;49.928;8.150;2023-04-25T01:53:25;984.5;;;6.11;100
75089;BME280;63673;49.928;8.150;2023-04-25T01:54:27;984.48;;;6.1;100
75089;BME280;63673;49.928;8.150;2023-04-25T01:55:28;984.49;;;6.1;100
75089;BME280;63673;49.928;8.150;2023-04-25T01:56:30;984.52;;;6.1;100
75089;BME280;63673;49.928;8.150;2023-04-25T01:57:32;984.53;;;6.1;100
75089;BME280;63673;49.928;8.150;2023-04-25T01:58:54;984.51;;;6.09;100
75089;BME280;63673;49.928;8.150;2023-04-25T01:59:57;984.58;;;6.1;100
75089;BME280;63673;49.928;8.150;2023-04-25T02:00:57;984.56;;;6.1;100
75089;BME280;63673;49.928;8.150;2023-04-25T02:01:59;984.53;;;6.1;100
75089;BME280;63673;49.928;8.150;2023-04-25T02:03:01;984.5;;;6.09;100
75089;BME280;63673;49.928;8.150;2023-04-25T02:04:03;984.54;;;6.09;100
75089;BME280;63673;49.928;8.150;2023-04-25T02:05:05;984.51;;;6.09;100
75089;BME280;63673;49.928;8.150;2023-04-25T02:06:06;984.49;;;6.09;100
75089;BME280;63673;49.928;8.150;2023-04-25T02:07:08;984.53;;;6.08;100
75089;BME280;63673;49.928;8.150;2023-04-25T02:08:10;984.51;;;6.08;100
75089;BME280;63673;49.928;8.150;2023-04-25T02:09:11;984.55;;;6.07;100
75089;BME280;63673;49.928;8.150;2023-04-25T02:10:13;984.51;;;6.07;100
75089;BME280;63673;49.928;8.150;2023-04-25T02:11:15;984.55;;;6.07;100
75089;BME280;63673;49.928;8.150;2023-04-25T02:12:17;984.53;;;6.07;100
75089;BME280;63673;49.928;8.150;2023-04-25T02:13:18;984.52;;;6.05;100
75089;BME280;63673;49.928;8.150;2023-04-25T02:14:20;984.51;;;6.05;100
75089;BME280;63673;49.928;8.150;2023-04-25T02:15:22;984.54;;;6.04;100
75089;BME280;63673;49.928;8.150;2023-04-25T02:16:23;984.52;;;6.04;100
75089;BME280;63673;49.928;8.150;2023-04-25T02:17:25;984.5;;;6.04;100
75089;BME280;63673;49.928;8.150;2023-04-25T02:18:27;984.5;;;6.03;100
75089;BME280;63673;49.928;8.150;2023-04-25T02:19:29;984.52;;;6.02;100
75089;BME280;63673;49.928;8.150;2023-04-25T02:20:30;984.53;;;6.02;100
75089;BME280;63673;49.928;8.150;2023-04-25T02:21:32;984.58;;;6.01;100
75089;BME280;63673;49.928;8.150;2023-04-25T02:22:34;984.53;;;6;100
75089;BME280;63673;49.928;8.150;2023-04-25T02:23:36;984.51;;;6;100
75089;BME280;63673;49.928;8.150;2023-04-25T02:24:37;984.51;;;6;100
75089;BME280;63673;49.928;8.150;2023-04-25T02:25:39;984.53;;;5.99;100
75089;BME280;63673;49.928;8.150;2023-04-25T02:26:41;984.52;;;5.99;100
75089;BME280;63673;49.928;8.150;2023-04-25T02:27:43;984.51;;;5.99;100
75089;BME280;63673;49.928;8.150;2023-04-25T02:28:44;984.55;;;5.97;100
75089;BME280;63673;49.928;8.150;2023-04-25T02:29:46;984.5;;;5.97;100
75089;BME280;63673;49.928;8.150;2023-04-25T02:30:48;984.55;;;5.96;100
75089;BME280;63673;49.928;8.150;2023-04-25T02:31:49;984.56;;;5.96;100
75089;BME280;63673;49.928;8.150;2023-04-25T02:32:51;984.52;;;5.95;100
75089;BME280;63673;49.928;8.150;2023-04-25T02:33:53;984.52;;;5.95;100
75089;BME280;63673;49.928;8.150;2023-04-25T02:34:55;984.51;;;5.93;100
75089;BME280;63673;49.928;8.150;2023-04-25T02:35:56;984.5;;;5.93;100
75089;BME280;63673;49.928;8.150;2023-04-25T02:36:58;984.53;;;5.92;100
75089;BME280;63673;49.928;8.150;2023-04-25T02:38:00;984.54;;;5.91;100
75089;BME280;63673;49.928;8.150;2023-04-25T02:39:02;984.51;;;5.9;100
75089;BME280;63673;49.928;8.150;2023-04-25T02:40:04;984.48;;;5.89;100
75089;BME280;63673;49.928;8.150;2023-04-25T02:41:05;984.51;;;5.88;100
75089;BME280;63673;49.928;8.150;2023-04-25T02:42:07;984.48;;;5.87;100
75089;BME280;63673;49.928;8.150;2023-04-25T02:43:09;984.5;;;5.86;100
75089;BME280;63673;49.928;8.150;2023-04-25T02:44:10;984.49;;;5.86;100
75089;BME280;63673;49.928;8.150;2023-04-25T02:45:12;984.49;;;5.85;100
75089;BME280;63673;49.928;8.150;2023-04-25T02:46:14;984.46;;;5.84;100
75089;BME280;63673;49.928;8.150;2023-04-25T02:47:15;984.49;;;5.83;100
75089;BME280;63673;49.928;8.150;2023-04-25T02:48:17;984.46;;;5.82;100
75089;BME280;63673;49.928;8.150;2023-04-25T02:49:19;984.49;;;5.82;100
75089;BME280;63673;49.928;8.150;2023-04-25T02:50:21;984.51;;;5.8;100
75089;BME280;63673;49.928;8.150;2023-04-25T02:51:22;984.51;;;5.79;100
75089;BME280;63673;49.928;8.150;2023-04-25T02:52:24;984.49;;;5.79;100
75089;BME280;63673;49.928;8.150;2023-04-25T02:53:26;984.5;;;5.77;100
75089;BME280;63673;49.928;8.150;2023-04-25T02:54:28;984.5;;;5.77;100
75089;BME280;63673;49.928;8.150;2023-04-25T02:55:29;984.53;;;5.76;100
75089;BME280;63673;49.928;8.150;2023-04-25T02:56:31;984.52;;;5.76;100
75089;BME280;63673;49.928;8.150;2023-04-25T02:57:33;984.5;;;5.75;100
75089;BME280;63673;49.928;8.150;2023-04-25T02:58:35;984.51;;;5.75;100
75089;BME280;63673;49.928;8.150;2023-04-25T02:59:36;984.52;;;5.73;100
75089;BME280;63673;49.928;8.150;2023-04-25T03:00:38;984.49;;;5.74;100
75089;BME280;63673;49.928;8.150;2023-04-25T03:01:40;984.5;;;5.74;100
75089;BME280;63673;49.928;8.150;2023-04-25T03:02:41;984.51;;;5.74;100
75089;BME280;63673;49.928;8.150;2023-04-25T03:03:43;984.53;;;5.74;100
75089;BME280;63673;49.928;8.150;2023-04-25T03:04:45;984.49;;;5.74;100
75089;BME280;63673;49.928;8.150;2023-04-25T03:05:47;984.48;;;5.74;100
75089;BME280;63673;49.928;8.150;2023-04-25T03:06:48;984.41;;;5.74;100
75089;BME280;63673;49.928;8.150;2023-04-25T03:07:50;984.48;;;5.75;100
75089;BME280;63673;49.928;8.150;2023-04-25T03:08:52;984.39;;;5.75;100
75089;BME280;63673;49.928;8.150;2023-04-25T03:09:54;984.41;;;5.75;100
75089;BME280;63673;49.928;8.150;2023-04-25T03:10:55;984.39;;;5.76;100
75089;BME280;63673;49.928;8.150;2023-04-25T03:11:57;984.31;;;5.77;100
75089;BME280;63673;49.928;8.150;2023-04-25T03:12:59;984.38;;;5.77;100
75089;BME280;63673;49.928;8.150;2023-04-25T03:14:01;984.42;;;5.79;100
75089;BME280;63673;49.928;8.150;2023-04-25T03:15:02;984.45;;;5.79;100
75089;BME280;63673;49.928;8.150;2023-04-25T03:16:04;984.45;;;5.81;100
75089;BME280;63673;49.928;8.150;2023-04-25T03:17:06;984.46;;;5.82;100
75089;BME280;63673;49.928;8.150;2023-04-25T03:18:07;984.41;;;5.82;100
75089;BME280;63673;49.928;8.150;2023-04-25T03:19:09;984.4;;;5.83;100
75089;BME280;63673;49.928;8.150;2023-04-25T03:20:11;984.38;;;5.85;100
75089;BME280;63673;49.928;8.150;2023-04-25T03:21:13;984.35;;;5.86;100
75089;BME280;63673;49.928;8.150;2023-04-25T03:22:14;984.35;;;5.86;100
75089;BME280;63673;49.928;8.150;2023-04-25T03:23:16;984.4;;;5.87;100
75089;BME280;63673;49.928;8.150;2023-04-25T03:24:18;984.4;;;5.88;100
75089;BME280;63673;49.928;8.150;2023-04-25T03:25:20;984.42;;;5.89;100
75089;BME280;63673;49.928;8.150;2023-04-25T03:26:21;984.42;;;5.9;100
75089;BME280;63673;49.928;8.150;2023-04-25T03:27:23;984.4;;;5.91;100
75089;BME280;63673;49.928;8.150;2023-04-25T03:28:25;984.4;;;5.92;100
75089;BME280;63673;49.928;8.150;2023-04-25T03:29:27;984.37;;;5.93;100
75089;BME280;63673;49.928;8.150;2023-04-25T03:30:28;984.36;;;5.93;100
75089;BME280;63673;49.928;8.150;2023-04-25T03:31:30;984.37;;;5.95;100
75089;BME280;63673;49.928;8.150;2023-04-25T03:32:32;984.29;;;5.95;100
75089;BME280;63673;49.928;8.150;2023-04-25T03:33:33;984.35;;;5.96;100
75089;BME280;63673;49.928;8.150;2023-04-25T03:34:35;984.41;;;5.96;100
75089;BME280;63673;49.928;8.150;2023-04-25T03:35:37;984.41;;;5.96;100
75089;BME280;63673;49.928;8.150;2023-04-25T03:36:39;984.43;;;5.97;100
75089;BME280;63673;49.928;8.150;2023-04-25T03:37:40;984.44;;;5.96;100
75089;BME280;63673;49.928;8.150;2023-04-25T03:38:42;984.42;;;5.96;100
75089;BME280;63673;49.928;8.150;2023-04-25T03:39:44;984.44;;;5.96;100
75089;BME280;63673;49.928;8.150;2023-04-25T03:40:46;984.45;;;5.96;100
75089;BME280;63673;49.928;8.150;2023-04-25T03:41:47;984.44;;;5.96;100
75089;BME280;63673;49.928;8.150;2023-04-25T03:42:49;984.46;;;5.95;100
75089;BME280;63673;49.928;8.150;2023-04-25T03:43:51;984.43;;;5.94;100
75089;BME280;63673;49.928;8.150;2023-04-25T03:44:53;984.4;;;5.94;100
75089;BME280;63673;49.928;8.150;2023-04-25T03:45:54;984.44;;;5.92;100
75089;BME280;63673;49.928;8.150;2023-04-25T03:46:56;984.46;;;5.92;100
75089;BME280;63673;49.928;8.150;2023-04-25T03:47:58;984.44;;;5.91;100
75089;BME280;63673;49.928;8.150;2023-04-25T03:48:59;984.45;;;5.89;100
75089;BME280;63673;49.928;8.150;2023-04-25T03:50:01;984.5;;;5.89;100
75089;BME280;63673;49.928;8.150;2023-04-25T03:51:03;984.51;;;5.87;100
75089;BME280;63673;49.928;8.150;2023-04-25T03:52:05;984.5;;;5.86;100
75089;BME280;63673;49.928;8.150;2023-04-25T03:53:06;984.49;;;5.87;100
75089;BME280;63673;49.928;8.150;2023-04-25T03:54:08;984.54;;;5.85;100
75089;BME280;63673;49.928;8.150;2023-04-25T03:55:10;984.57;;;5.85;100
75089;BME280;63673;49.928;8.150;2023-04-25T03:56:12;984.57;;;5.84;100
75089;BME280;63673;49.928;8.150;2023-04-25T03:57:13;984.55;;;5.84;100
75089;BME280;63673;49.928;8.150;2023-04-25T03:58:15;984.52;;;5.83;100
75089;BME280;63673;49.928;8.150;2023-04-25T03:59:17;984.53;;;5.83;100
75089;BME280;63673;49.928;8.150;2023-04-25T04:00:19;984.55;;;5.82;100
75089;BME280;63673;49.928;8.150;2023-04-25T04:01:20;984.52;;;5.82;100
75089;BME280;63673;49.928;8.150;2023-04-25T04:02:22;984.6;;;5.81;100
75089;BME280;63673;49.928;8.150;2023-04-25T04:03:24;984.53;;;5.8;100
75089;BME280;63673;49.928;8.150;2023-04-25T04:04:25;984.54;;;5.79;100
75089;BME280;63673;49.928;8.150;2023-04-25T04:05:27;984.57;;;5.76;100
75089;BME280;63673;49.928;8.150;2023-04-25T04:06:29;984.55;;;5.76;100
75089;BME280;63673;49.928;8.150;2023-04-25T04:07:31;984.61;;;5.73;100
75089;BME280;63673;49.928;8.150;2023-04-25T04:08:32;984.63;;;5.72;100
75089;BME280;63673;49.928;8.150;2023-04-25T04:09:34;984.68;;;5.7;100
75089;BME280;63673;49.928;8.150;2023-04-25T04:10:36;984.69;;;5.69;100
75089;BME280;63673;49.928;8.150;2023-04-25T04:11:38;984.69;;;5.68;100
75089;BME280;63673;49.928;8.150;2023-04-25T04:12:39;984.71;;;5.67;100
75089;BME280;63673;49.928;8.150;2023-04-25T04:13:41;984.72;;;5.66;100
75089;BME280;63673;49.928;8.150;2023-04-25T04:14:43;984.74;;;5.65;100
75089;BME280;63673;49.928;8.150;2023-04-25T04:15:45;984.79;;;5.65;100
75089;BME280;63673;49.928;8.150;2023-04-25T04:16:46;984.77;;;5.65;100
75089;BME280;63673;49.928;8.150;2023-04-25T04:17:48;984.75;;;5.65;100
75089;BME280;63673;49.928;8.150;2023-04-25T04:18:50;984.71;;;5.65;100
75089;BME280;63673;49.928;8.150;2023-04-25T04:19:51;984.76;;;5.65;100
75089;BME280;63673;49.928;8.150;2023-04-25T04:20:53;984.75;;;5.65;100
75089;BME280;63673;49.928;8.150;2023-04-25T04:21:55;984.74;;;5.65;100
75089;BME280;63673;49.928;8.150;2023-04-25T04:22:57;984.76;;;5.66;100
75089;BME280;63673;49.928;8.150;2023-04-25T04:23:58;984.83;;;5.67;100
75089;BME280;63673;49.928;8.150;2023-04-25T04:25:00;984.84;;;5.65;100
75089;BME280;63673;49.928;8.150;2023-04-25T04:26:02;984.85;;;5.67;100
75089;BME280;63673;49.928;8.150;2023-04-25T04:27:04;984.92;;;5.66;100
75089;BME280;63673;49.928;8.150;2023-04-25T04:28:05;984.92;;;5.66;100
75089;BME280;63673;49.928;8.150;2023-04-25T04:29:07;984.94;;;5.67;100
75089;BME280;63673;49.928;8.150;2023-04-25T04:30:09;984.99;;;5.67;100
75089;BME280;63673;49.928;8.150;2023-04-25T04:31:11;984.92;;;5.66;100
75089;BME280;63673;49.928;8.150;2023-04-25T04:32:13;984.9;;;5.66;100
75089;BME280;63673;49.928;8.150;2023-04-25T04:33:14;984.91;;;5.66;100
75089;BME280;63673;49.928;8.150;2023-04-25T04:34:16;984.92;;;5.66;100
75089;BME280;63673;49.928;8.150;2023-04-25T04:35:17;984.91;;;5.65;100
75089;BME280;63673;49.928;8.150;2023-04-25T04:36:19;984.9;;;5.64;100
75089;BME280;63673;49.928;8.150;2023-04-25T04:37:21;984.92;;;5.65;100
75089;BME280;63673;49.928;8.150;2023-04-25T04:44:10;984.89;;;5.54;100
75089;BME280;63673;49.928;8.150;2023-04-25T04:45:12;984.92;;;5.52;100
75089;BME280;63673;49.928;8.150;2023-04-25T04:46:13;984.91;;;5.5;100
75089;BME280;63673;49.928;8.150;2023-04-25T04:47:15;984.9;;;5.46;100
75089;BME280;63673;49.928;8.150;2023-04-25T04:48:17;984.97;;;5.43;100
75089;BME280;63673;49.928;8.150;2023-04-25T04:49:19;984.94;;;5.4;100
75089;BME280;63673;49.928;8.150;2023-04-25T04:50:20;984.98;;;5.35;100
75089;BME280;63673;49.928;8.150;2023-04-25T04:51:22;985;;;5.33;100
75089;BME280;63673;49.928;8.150;2023-04-25T04:52:24;985.05;;;5.28;100
75089;BME280;63673;49.928;8.150;2023-04-25T04:53:26;985.05;;;5.25;100
75089;BME280;63673;49.928;8.150;2023-04-25T04:54:27;985.07;;;5.21;100
75089;BME280;63673;49.928;8.150;2023-04-25T04:55:29;985.1;;;5.16;100
75089;BME280;63673;49.928;8.150;2023-04-25T04:56:31;985.1;;;5.12;100
75089;BME280;63673;49.928;8.150;2023-04-25T04:57:32;985.13;;;5.1;100
75089;BME280;63673;49.928;8.150;2023-04-25T04:58:34;985.15;;;5.06;100
75089;BME280;63673;49.928;8.150;2023-04-25T04:59:36;985.21;;;5.02;100
75089;BME280;63673;49.928;8.150;2023-04-25T05:00:38;985.21;;;4.99;100
75089;BME280;63673;49.928;8.150;2023-04-25T05:01:40;985.17;;;4.97;100
75089;BME280;63673;49.928;8.150;2023-04-25T05:02:41;985.24;;;4.95;100
75089;BME280;63673;49.928;8.150;2023-04-25T05:03:43;985.24;;;4.93;100
75089;BME280;63673;49.928;8.150;2023-04-25T05:04:45;985.24;;;4.92;100
75089;BME280;63673;49.928;8.150;2023-04-25T05:05:46;985.25;;;4.91;100
75089;BME280;63673;49.928;8.150;2023-04-25T05:06:48;985.21;;;4.9;100
75089;BME280;63673;49.928;8.150;2023-04-25T05:07:50;985.24;;;4.88;100
75089;BME280;63673;49.928;8.150;2023-04-25T05:08:51;985.29;;;4.88;100
75089;BME280;63673;49.928;8.150;2023-04-25T05:09:53;985.25;;;4.88;100
75089;BME280;63673;49.928;8.150;2023-04-25T05:10:54;985.34;;;4.89;100
75089;BME280;63673;49.928;8.150;2023-04-25T05:11:57;985.3;;;4.9;100
75089;BME280;63673;49.928;8.150;2023-04-25T05:12:58;985.29;;;4.92;100
75089;BME280;63673;49.928;8.150;2023-04-25T05:14:00;985.28;;;4.93;100
75089;BME280;63673;49.928;8.150;2023-04-25T05:15:02;985.29;;;4.96;100
75089;BME280;63673;49.928;8.150;2023-04-25T05:16:04;985.29;;;4.98;100
75089;BME280;63673;49.928;8.150;2023-04-25T05:17:05;985.35;;;5.01;100
75089;BME280;63673;49.928;8.150;2023-04-25T05:18:07;985.34;;;5.05;100
75089;BME280;63673;49.928;8.150;2023-04-25T05:19:09;985.39;;;5.06;100
75089;BME280;63673;49.928;8.150;2023-04-25T05:20:11;985.39;;;5.07;100
75089;BME280;63673;49.928;8.150;2023-04-25T05:21:12;985.42;;;5.09;100
75089;BME280;63673;49.928;8.150;2023-04-25T05:22:14;985.44;;;5.09;100
75089;BME280;63673;49.928;8.150;2023-04-25T05:23:16;985.43;;;5.1;100
75089;BME280;63673;49.928;8.150;2023-04-25T05:24:17;985.4;;;5.1;100
75089;BME280;63673;49.928;8.150;2023-04-25T05:25:19;985.48;;;5.09;100
75089;BME280;63673;49.928;8.150;2023-04-25T05:26:21;985.51;;;5.1;100
75089;BME280;63673;49.928;8.150;2023-04-25T05:27:23;985.51;;;5.09;100
75089;BME280;63673;49.928;8.150;2023-04-25T05:28:25;985.47;;;5.1;100
75089;BME280;63673;49.928;8.150;2023-04-25T05:29:26;985.49;;;5.11;100
75089;BME280;63673;49.928;8.150;2023-04-25T05:30:28;985.48;;;5.11;100
75089;BME280;63673;49.928;8.150;2023-04-25T05:31:30;985.46;;;5.1;100
75089;BME280;63673;49.928;8.150;2023-04-25T05:32:31;985.46;;;5.11;100
75089;BME280;63673;49.928;8.150;2023-04-25T05:33:33;985.52;;;5.1;100
75089;BME280;63673;49.928;8.150;2023-04-25T05:34:35;985.53;;;5.1;100
75089;BME280;63673;49.928;8.150;2023-04-25T05:35:37;985.53;;;5.1;100
75089;BME280;63673;49.928;8.150;2023-04-25T05:36:38;985.51;;;5.1;100
75089;BME280;63673;49.928;8.150;2023-04-25T05:37:40;985.51;;;5.1;100
75089;BME280;63673;49.928;8.150;2023-04-25T05:38:42;985.51;;;5.1;100
75089;BME280;63673;49.928;8.150;2023-04-25T05:39:43;985.51;;;5.09;100
75089;BME280;63673;49.928;8.150;2023-04-25T05:40:45;985.55;;;5.09;100
75089;BME280;63673;49.928;8.150;2023-04-25T05:41:47;985.47;;;5.09;100
75089;BME280;63673;49.928;8.150;2023-04-25T05:42:49;985.48;;;5.09;100
75089;BME280;63673;49.928;8.150;2023-04-25T05:43:50;985.49;;;5.08;100
75089;BME280;63673;49.928;8.150;2023-04-25T05:44:52;985.46;;;5.08;100
75089;BME280;63673;49.928;8.150;2023-04-25T05:45:54;985.41;;;5.05;100
75089;BME280;63673;49.928;8.150;2023-04-25T05:46:56;985.48;;;5.05;100
75089;BME280;63673;49.928;8.150;2023-04-25T05:47:57;985.45;;;5.04;100
75089;BME280;63673;49.928;8.150;2023-04-25T05:48:59;985.45;;;5.03;100
75089;BME280;63673;49.928;8.150;2023-04-25T05:50:01;985.49;;;5.03;100
75089;BME280;63673;49.928;8.150;2023-04-25T05:51:03;985.47;;;5.02;100
75089;BME280;63673;49.928;8.150;2023-04-25T05:52:04;985.44;;;5.01;100
75089;BME280;63673;49.928;8.150;2023-04-25T05:53:06;985.51;;;5;100
75089;BME280;63673;49.928;8.150;2023-04-25T05:54:08;985.45;;;5;100
75089;BME280;63673;49.928;8.150;2023-04-25T05:55:10;985.4;;;4.98;100
75089;BME280;63673;49.928;8.150;2023-04-25T05:56:11;985.43;;;4.99;100
75089;BME280;63673;49.928;8.150;2023-04-25T05:57:18;985.5;;;4.98;100
75089;BME280;63673;49.928;8.150;2023-04-25T05:58:15;985.52;;;4.97;100